createdAt,value
2018-12-02T00:00:26.853Z,99733.89
2018-12-02T00:02:55.193Z,99735.58
2018-12-02T00:05:23.873Z,99730.05
2018-12-02T00:07:52.049Z,99726.80
2018-12-02T00:10:20.940Z,99713.67
2018-12-02T00:12:49.220Z,99708.58
2018-12-02T00:15:20.384Z,99700.39
2018-12-02T00:17:49.132Z,99702.98
2018-12-02T00:20:17.284Z,99686.75
2018-12-02T00:22:45.428Z,99691.13
2018-12-02T00:25:14.593Z,99686.27
2018-12-02T00:27:45.012Z,99681.66
2018-12-02T00:30:17.103Z,99667.25
2018-12-02T00:32:45.312Z,99661.76
2018-12-02T00:35:14.456Z,99661.20
2018-12-02T00:37:43.453Z,99662.55
2018-12-02T00:40:12.678Z,99651.73
2018-12-02T00:42:41.303Z,99647.88
2018-12-02T00:45:13.016Z,99642.66
2018-12-02T00:47:41.186Z,99633.66
2018-12-02T00:50:12.181Z,99637.61
2018-12-02T00:52:40.681Z,99636.73
2018-12-02T00:55:12.265Z,99631.16
2018-12-02T00:57:40.420Z,99636.90
2018-12-02T01:00:12.206Z,99630.53
2018-12-02T01:02:40.452Z,99628.22
2018-12-02T01:05:10.288Z,99626.68
2018-12-02T01:07:38.561Z,99620.79
2018-12-02T01:10:25.516Z,99619.84
2018-12-02T01:12:54.770Z,99624.85
2018-12-02T01:15:25.069Z,99625.73
2018-12-02T01:17:53.210Z,99619.28
2018-12-02T01:20:22.047Z,99597.73
2018-12-02T01:22:50.193Z,99610.89
2018-12-02T01:25:18.344Z,99615.34
2018-12-02T01:27:46.989Z,99604.99
2018-12-02T01:30:22.140Z,99603.08
2018-12-02T01:32:51.212Z,99601.33
2018-12-02T01:35:19.507Z,99599.50
2018-12-02T01:37:47.649Z,99594.48
2018-12-02T01:40:16.880Z,99603.00
2018-12-02T01:42:45.161Z,99592.45
2018-12-02T01:45:15.506Z,99587.52
2018-12-02T01:47:43.740Z,99584.81
2018-12-02T01:50:13.756Z,99591.98
2018-12-02T01:52:42.369Z,99583.86
2018-12-02T01:55:10.537Z,99577.00
2018-12-02T01:57:38.817Z,99576.52
2018-12-02T02:00:12.720Z,99577.00
2018-12-02T02:02:40.892Z,99571.11
2018-12-02T02:05:09.073Z,99576.05
2018-12-02T02:07:37.545Z,99564.90
2018-12-02T02:10:12.262Z,99561.23
2018-12-02T02:12:40.452Z,99557.17
2018-12-02T02:15:10.140Z,99553.98
2018-12-02T02:17:38.341Z,99558.45
2018-12-02T02:20:08.835Z,99549.84
2018-12-02T02:22:37.040Z,99545.39
2018-12-02T02:25:06.517Z,99542.99
2018-12-02T02:27:34.724Z,99541.92
2018-12-02T02:30:02.894Z,99532.44
2018-12-02T02:32:31.080Z,99532.84
2018-12-02T02:34:59.232Z,99519.30
2018-12-02T02:37:27.424Z,99525.59
2018-12-02T02:39:55.588Z,99517.95
2018-12-02T02:42:23.776Z,99510.22
2018-12-02T02:44:51.921Z,99494.45
2018-12-02T02:47:20.086Z,99497.08
2018-12-02T02:49:48.394Z,99492.30
2018-12-02T02:52:16.573Z,99483.90
2018-12-02T02:54:44.753Z,99486.12
2018-12-02T02:57:12.900Z,99476.65
2018-12-02T02:59:41.113Z,99480.23
2018-12-02T03:02:09.269Z,99482.94
2018-12-02T03:04:37.442Z,99473.86
2018-12-02T03:07:05.612Z,99468.44
2018-12-02T03:09:33.745Z,99461.67
2018-12-02T03:12:02.075Z,99461.55
2018-12-02T03:14:30.212Z,99459.33
2018-12-02T03:16:58.569Z,99453.34
2018-12-02T03:19:26.786Z,99446.09
2018-12-02T03:21:54.976Z,99441.16
2018-12-02T03:24:23.135Z,99441.16
2018-12-02T03:26:51.276Z,99433.12
2018-12-02T03:29:19.513Z,99428.66
2018-12-02T03:31:47.670Z,99424.52
2018-12-02T03:34:15.849Z,99421.81
2018-12-02T03:36:44.077Z,99420.54
2018-12-02T03:39:12.204Z,99421.41
2018-12-02T03:41:40.384Z,99416.12
2018-12-02T03:44:08.556Z,99416.99
2018-12-02T03:46:36.749Z,99410.70
2018-12-02T03:49:05.501Z,99397.52
2018-12-02T03:51:33.580Z,99399.27
2018-12-02T03:54:01.733Z,99394.64
2018-12-02T03:56:29.926Z,99391.45
2018-12-02T03:58:58.112Z,99386.44
2018-12-02T04:01:26.281Z,99381.41
2018-12-02T04:03:54.460Z,99380.45
2018-12-02T04:06:22.625Z,99374.55
2018-12-02T04:08:50.785Z,99371.84
2018-12-02T04:11:19.072Z,99379.09
2018-12-02T04:13:47.286Z,99375.43
2018-12-02T04:16:15.431Z,99375.43
2018-12-02T04:18:43.578Z,99379.09
2018-12-02T04:21:11.791Z,99378.63
2018-12-02T04:23:39.952Z,99373.56
2018-12-02T04:26:08.138Z,99371.73
2018-12-02T04:28:36.300Z,99364.20
2018-12-02T04:31:04.605Z,99363.72
2018-12-02T04:33:32.767Z,99365.95
2018-12-02T04:36:00.944Z,99355.88
2018-12-02T04:38:29.080Z,99359.94
2018-12-02T04:40:57.293Z,99361.29
2018-12-02T04:43:25.453Z,99355.95
2018-12-02T04:45:53.645Z,99363.24
2018-12-02T04:48:21.784Z,99357.83
2018-12-02T04:50:49.988Z,99364.00
2018-12-02T04:53:18.153Z,99360.53
2018-12-02T04:55:46.341Z,99348.83
2018-12-02T04:58:14.505Z,99351.53
2018-12-02T05:00:42.662Z,99347.47
2018-12-02T05:03:10.866Z,99338.56
2018-12-02T05:05:39.064Z,99342.06
2018-12-02T05:08:07.216Z,99336.52
2018-12-02T05:10:35.384Z,99334.80
2018-12-02T05:13:03.550Z,99332.46
2018-12-02T05:15:31.693Z,99333.45
2018-12-02T05:17:59.904Z,99327.52
2018-12-02T05:20:28.064Z,99327.64
2018-12-02T05:22:56.208Z,99320.39
2018-12-02T05:25:24.441Z,99311.48
2018-12-02T05:27:52.605Z,99311.56
2018-12-02T05:30:22.775Z,99305.37
2018-12-02T05:32:51.844Z,99297.25
2018-12-02T05:35:20.113Z,99298.69
2018-12-02T05:37:48.301Z,99295.70
2018-12-02T05:40:21.300Z,99287.17
2018-12-02T05:42:49.462Z,99288.29
2018-12-02T05:45:18.253Z,99287.31
2018-12-02T05:47:46.532Z,99287.88
2018-12-02T05:50:19.664Z,99281.48
2018-12-02T05:52:50.100Z,99280.98
2018-12-02T05:55:19.705Z,99268.67
2018-12-02T05:57:48.024Z,99274.69
2018-12-02T06:00:23.112Z,99262.98
2018-12-02T06:02:51.343Z,99265.55
2018-12-02T06:05:19.485Z,99262.45
2018-12-02T06:07:47.635Z,99251.06
2018-12-02T06:10:18.487Z,99253.98
2018-12-02T06:12:46.704Z,99243.24
2018-12-02T06:15:18.681Z,99232.91
2018-12-02T06:17:47.036Z,99233.38
2018-12-02T06:20:18.884Z,99231.94
2018-12-02T06:22:47.457Z,99226.92
2018-12-02T06:25:15.607Z,99231.64
2018-12-02T06:27:44.076Z,99222.73
2018-12-02T06:30:27.362Z,99223.44
2018-12-02T06:32:57.457Z,99212.62
2018-12-02T06:35:25.650Z,99217.73
2018-12-02T06:37:54.982Z,99207.14
2018-12-02T06:40:24.057Z,99209.94
2018-12-02T06:42:52.437Z,99215.18
2018-12-02T06:45:20.928Z,99206.47
2018-12-02T06:47:49.117Z,99211.22
2018-12-02T06:50:21.873Z,99215.86
2018-12-02T06:52:50.052Z,99200.10
2018-12-02T06:55:20.853Z,99200.41
2018-12-02T06:57:52.240Z,99213.45
2018-12-02T07:00:27.470Z,99194.34
2018-12-02T07:03:00.754Z,99197.44
2018-12-02T07:05:32.193Z,99189.31
2018-12-02T07:08:00.340Z,99192.38
2018-12-02T07:10:28.481Z,99197.14
2018-12-02T07:12:56.757Z,99192.78
2018-12-02T07:15:24.933Z,99193.27
2018-12-02T07:17:53.103Z,99190.86
2018-12-02T07:20:21.369Z,99183.70
2018-12-02T07:22:49.737Z,99185.27
2018-12-02T07:25:18.030Z,99174.53
2018-12-02T07:27:46.215Z,99182.56
2018-12-02T07:30:14.379Z,99173.27
2018-12-02T07:32:42.663Z,99167.85
2018-12-02T07:35:12.441Z,99169.02
2018-12-02T07:37:42.129Z,99172.91
2018-12-02T07:40:18.156Z,99170.94
2018-12-02T07:42:46.320Z,99164.95
2018-12-02T07:45:14.483Z,99168.63
2018-12-02T07:47:42.689Z,99156.84
2018-12-02T07:50:10.877Z,99156.74
2018-12-02T07:52:39.009Z,99157.88
2018-12-02T07:55:08.605Z,99157.05
2018-12-02T07:57:36.832Z,99146.00
2018-12-02T08:00:09.413Z,99142.23
2018-12-02T08:02:37.548Z,99141.17
2018-12-02T08:05:06.249Z,99140.48
2018-12-02T08:07:34.436Z,99138.06
2018-12-02T08:10:02.702Z,99136.71
2018-12-02T08:12:30.837Z,99141.34
2018-12-02T08:14:59.036Z,99139.22
2018-12-02T08:17:27.457Z,99133.80
2018-12-02T08:19:55.615Z,99137.64
2018-12-02T08:22:23.762Z,99134.27
2018-12-02T08:24:52.049Z,99136.27
2018-12-02T08:27:20.244Z,99135.13
2018-12-02T08:29:48.400Z,99125.41
2018-12-02T08:32:16.569Z,99134.80
2018-12-02T08:34:44.726Z,99130.45
2018-12-02T08:37:13.019Z,99121.36
2018-12-02T08:39:41.165Z,99125.44
2018-12-02T08:42:12.137Z,99119.21
2018-12-02T08:44:40.416Z,99111.53
2018-12-02T08:47:08.566Z,99120.34
2018-12-02T08:49:36.716Z,99122.83
2018-12-02T08:52:04.949Z,99112.56
2018-12-02T08:54:33.129Z,99113.69
2018-12-02T08:57:01.282Z,99118.14
2018-12-02T08:59:29.468Z,99116.11
2018-12-02T09:01:57.645Z,99113.08
2018-12-02T09:04:25.837Z,99107.84
2018-12-02T09:06:53.981Z,99100.48
2018-12-02T09:09:22.122Z,99099.77
2018-12-02T09:11:50.338Z,99109.93
2018-12-02T09:14:18.501Z,99103.41
2018-12-02T09:16:46.652Z,99099.19
2018-12-02T09:19:14.852Z,99088.52
2018-12-02T09:21:43.061Z,99098.79
2018-12-02T09:24:11.206Z,99090.42
2018-12-02T09:26:39.396Z,99083.43
2018-12-02T09:29:07.562Z,99073.70
2018-12-02T09:31:35.737Z,99081.53
2018-12-02T09:34:04.029Z,99074.03
2018-12-02T09:36:32.201Z,99074.36
2018-12-02T09:39:00.363Z,99070.84
2018-12-02T09:41:32.185Z,99069.16
2018-12-02T09:44:00.400Z,99067.48
2018-12-02T09:46:28.572Z,99064.91
2018-12-02T09:48:57.166Z,99060.25
2018-12-02T09:51:25.340Z,99068.88
2018-12-02T09:53:53.628Z,99066.27
2018-12-02T09:56:29.983Z,99058.37
2018-12-02T09:59:01.550Z,99058.37
2018-12-02T10:01:35.750Z,99062.47
2018-12-02T10:04:09.655Z,99067.75
2018-12-02T10:06:37.980Z,99058.84
2018-12-02T10:10:14.112Z,99065.00
2018-12-02T10:12:43.527Z,99065.31
2018-12-02T10:15:13.299Z,99053.73
2018-12-02T10:17:43.132Z,99055.27
2018-12-02T10:20:13.425Z,99065.89
2018-12-02T10:22:41.953Z,99066.89
2018-12-02T10:25:19.635Z,99055.80
2018-12-02T10:27:48.428Z,99057.64
2018-12-02T10:30:17.807Z,99054.63
2018-12-02T10:32:46.024Z,99050.06
2018-12-02T10:35:14.230Z,99049.94
2018-12-02T10:37:42.418Z,99048.86
2018-12-02T10:40:12.901Z,99047.39
2018-12-02T10:42:41.149Z,99041.48
2018-12-02T10:45:11.864Z,99044.83
2018-12-02T10:47:40.297Z,99032.50
2018-12-02T10:50:17.917Z,99029.09
2018-12-02T10:52:46.153Z,99034.03
2018-12-02T10:55:48.021Z,99033.80
2018-12-02T10:58:17.770Z,99023.01
2018-12-02T11:00:51.396Z,99021.92
2018-12-02T11:03:19.608Z,99035.22
2018-12-02T11:05:47.782Z,99033.73
2018-12-02T11:08:15.957Z,99038.18
2018-12-02T11:10:44.093Z,99034.77
2018-12-02T11:13:12.408Z,99031.30
2018-12-02T11:15:40.901Z,99022.69
2018-12-02T11:18:10.682Z,99028.75
2018-12-02T11:20:38.836Z,99033.06
2018-12-02T11:23:07.784Z,99033.34
2018-12-02T11:25:36.572Z,99026.06
2018-12-02T11:28:05.001Z,99020.14
2018-12-02T11:30:33.212Z,99018.05
2018-12-02T11:33:01.497Z,99009.59
2018-12-02T11:35:29.624Z,99014.21
2018-12-02T11:37:57.769Z,99007.48
2018-12-02T11:40:25.920Z,99010.82
2018-12-02T11:42:54.408Z,99015.06
2018-12-02T11:45:22.665Z,99019.27
2018-12-02T11:47:51.872Z,99011.90
2018-12-02T11:50:20.897Z,99009.23
2018-12-02T11:52:49.181Z,99020.73
2018-12-02T11:55:18.218Z,99007.25
2018-12-02T11:57:46.362Z,99013.95
2018-12-02T12:00:21.585Z,99023.95
2018-12-02T12:02:49.849Z,99019.04
2018-12-02T12:05:18.076Z,99023.73
2018-12-02T12:07:47.073Z,99021.52
2018-12-02T12:10:16.215Z,99021.41
2018-12-02T12:12:44.753Z,99023.64
2018-12-02T12:15:15.125Z,99017.98
2018-12-02T12:17:43.632Z,99028.27
2018-12-02T12:20:21.092Z,99025.40
2018-12-02T12:22:49.269Z,99037.30
2018-12-02T12:25:17.484Z,99031.88
2018-12-02T12:27:45.709Z,99026.98
2018-12-02T12:30:18.089Z,99023.78
2018-12-02T12:32:46.252Z,99024.54
2018-12-02T12:35:15.564Z,99030.70
2018-12-02T12:37:43.703Z,99019.34
2018-12-02T12:40:14.040Z,99019.22
2018-12-02T12:42:43.445Z,99015.14
2018-12-02T12:45:12.926Z,99011.22
2018-12-02T12:47:41.906Z,99012.44
2018-12-02T12:50:11.450Z,99019.50
2018-12-02T12:52:39.748Z,99029.17
2018-12-02T12:55:11.228Z,99030.64
2018-12-02T12:57:39.389Z,99027.05
2018-12-02T13:00:13.615Z,99022.86
2018-12-02T13:02:41.769Z,99027.92
2018-12-02T13:05:12.208Z,99020.38
2018-12-02T13:07:40.484Z,99031.03
2018-12-02T13:10:10.980Z,99032.77
2018-12-02T13:12:39.221Z,99034.50
2018-12-02T13:15:09.988Z,99030.17
2018-12-02T13:17:38.189Z,99020.04
2018-12-02T13:20:10.743Z,99016.23
2018-12-02T13:22:41.474Z,99024.57
2018-12-02T13:25:11.126Z,99032.63
2018-12-02T13:27:39.693Z,99023.33
2018-12-02T13:30:12.351Z,99025.06
2018-12-02T13:32:40.560Z,99028.28
2018-12-02T13:35:09.458Z,99019.51
2018-12-02T13:37:37.641Z,99031.98
2018-12-02T13:40:11.108Z,99026.20
2018-12-02T13:42:39.289Z,99012.33
2018-12-02T13:45:11.949Z,99016.29
2018-12-02T13:47:41.099Z,99017.42
2018-12-02T13:50:11.889Z,99021.50
2018-12-02T13:52:40.083Z,99016.17
2018-12-02T13:55:10.937Z,99020.16
2018-12-02T13:57:39.301Z,99029.05
2018-12-02T14:00:18.212Z,99030.19
2018-12-02T14:02:47.727Z,99033.52
2018-12-02T14:05:15.909Z,99040.92
2018-12-02T14:07:44.137Z,99050.45
2018-12-02T14:10:14.520Z,99043.53
2018-12-02T14:12:53.929Z,99054.31
2018-12-02T14:16:00.273Z,99050.45
2018-12-02T14:18:37.492Z,99056.16
2018-12-02T14:21:06.264Z,99068.42
2018-12-02T14:23:34.741Z,99065.20
2018-12-02T14:26:06.565Z,99067.17
2018-12-02T14:28:40.604Z,99070.53
2018-12-02T14:31:08.820Z,99066.45
2018-12-02T14:33:36.992Z,99062.86
2018-12-02T14:36:05.285Z,99078.59
2018-12-02T14:38:33.561Z,99077.22
2018-12-02T14:41:01.748Z,99073.14
2018-12-02T14:43:29.893Z,99076.73
2018-12-02T14:45:58.117Z,99087.25
2018-12-02T14:48:26.245Z,99065.46
2018-12-02T14:50:54.377Z,99080.81
2018-12-02T14:53:22.525Z,99089.48
2018-12-02T14:55:50.902Z,99087.47
2018-12-02T14:58:19.077Z,99093.30
2018-12-02T15:00:47.328Z,99093.80
2018-12-02T15:03:15.537Z,99093.30
2018-12-02T15:05:43.797Z,99094.55
2018-12-02T15:08:11.960Z,99088.61
2018-12-02T15:10:40.092Z,99095.41
2018-12-02T15:13:08.413Z,99101.35
2018-12-02T15:15:36.701Z,99106.95
2018-12-02T15:18:04.897Z,99102.37
2018-12-02T15:20:33.133Z,99108.16
2018-12-02T15:23:01.343Z,99108.05
2018-12-02T15:25:29.748Z,99100.74
2018-12-02T15:27:57.997Z,99097.03
2018-12-02T15:30:26.820Z,99099.64
2018-12-02T15:32:55.008Z,99104.59
2018-12-02T15:35:23.166Z,99102.63
2018-12-02T15:37:51.408Z,99107.92
2018-12-02T15:40:19.577Z,99104.33
2018-12-02T15:42:51.816Z,99104.70
2018-12-02T15:45:20.908Z,99100.39
2018-12-02T15:47:49.128Z,99096.69
2018-12-02T15:50:22.469Z,99094.83
2018-12-02T15:52:51.361Z,99102.13
2018-12-02T15:55:23.253Z,99099.29
2018-12-02T15:57:51.434Z,99111.40
2018-12-02T16:00:24.968Z,99106.33
2018-12-02T16:02:53.153Z,99111.28
2018-12-02T16:05:21.381Z,99114.64
2018-12-02T16:07:49.533Z,99118.61
2018-12-02T16:10:17.872Z,99132.08
2018-12-02T16:12:50.213Z,99134.69
2018-12-02T16:15:22.689Z,99140.52
2018-12-02T16:17:51.538Z,99130.38
2018-12-02T16:20:27.424Z,99131.99
2018-12-02T16:22:56.273Z,99145.24
2018-12-02T16:25:24.600Z,99150.05
2018-12-02T16:27:52.803Z,99147.70
2018-12-02T16:30:21.224Z,99144.74
2018-12-02T16:32:54.167Z,99145.00
2018-12-02T16:35:23.299Z,99145.50
2018-12-02T16:37:52.620Z,99144.73
2018-12-02T16:40:23.208Z,99140.16
2018-12-02T16:42:52.601Z,99147.34
2018-12-02T16:45:20.744Z,99150.33
2018-12-02T16:47:51.287Z,99146.84
2018-12-02T16:50:33.672Z,99137.30
2018-12-02T16:53:07.534Z,99140.67
2018-12-02T16:55:38.915Z,99150.55
2018-12-02T16:58:15.420Z,99150.31
2018-12-02T17:00:55.152Z,99154.41
2018-12-02T17:03:23.305Z,99155.16
2018-12-02T17:05:51.509Z,99159.47
2018-12-02T17:08:19.721Z,99160.98
2018-12-02T17:10:50.647Z,99159.88
2018-12-02T17:13:16.156Z,99166.04
2018-12-02T17:15:44.333Z,99163.31
2018-12-02T17:18:12.578Z,99170.63
2018-12-02T17:20:40.733Z,99173.23
2018-12-02T17:23:08.888Z,99172.25
2018-12-02T17:25:37.079Z,99162.70
2018-12-02T17:28:05.548Z,99167.58
2018-12-02T17:30:38.612Z,99162.50
2018-12-02T17:33:07.527Z,99172.91
2018-12-02T17:35:35.725Z,99168.33
2018-12-02T17:38:03.880Z,99163.59
2018-12-02T17:40:32.028Z,99149.47
2018-12-02T17:43:00.169Z,99156.54
2018-12-02T17:45:28.317Z,99158.28
2018-12-02T17:47:56.593Z,99167.82
2018-12-02T17:50:24.741Z,99150.97
2018-12-02T17:52:52.948Z,99155.92
2018-12-02T17:55:21.145Z,99142.78
2018-12-02T17:57:49.301Z,99139.56
2018-12-02T18:00:20.481Z,99138.33
2018-12-02T18:02:48.733Z,99132.00
2018-12-02T18:05:19.124Z,99137.45
2018-12-02T18:07:47.509Z,99147.49
2018-12-02T18:10:15.840Z,99148.11
2018-12-02T18:12:44.164Z,99163.85
2018-12-02T18:15:15.421Z,99168.44
2018-12-02T18:17:43.769Z,99173.78
2018-12-02T18:20:15.975Z,99161.34
2018-12-02T18:22:44.445Z,99149.58
2018-12-02T18:25:15.880Z,99155.64
2018-12-02T18:27:44.822Z,99152.16
2018-12-02T18:30:14.501Z,99162.95
2018-12-02T18:32:42.772Z,99169.65
2018-12-02T18:35:23.157Z,99174.48
2018-12-02T18:37:52.029Z,99189.72
2018-12-02T18:40:20.252Z,99188.47
2018-12-02T18:42:48.477Z,99187.98
2018-12-02T18:45:16.714Z,99193.31
2018-12-02T18:47:45.040Z,99193.57
2018-12-02T18:50:13.233Z,99184.78
2018-12-02T18:52:41.393Z,99189.22
2018-12-02T18:55:11.296Z,99180.92
2018-12-02T18:57:39.965Z,99184.89
2018-12-02T19:00:18.905Z,99190.14
2018-12-02T19:02:47.473Z,99181.09
2018-12-02T19:05:15.712Z,99182.34
2018-12-02T19:07:43.860Z,99175.86
2018-12-02T19:10:15.728Z,99175.86
2018-12-02T19:12:43.902Z,99173.89
2018-12-02T19:15:13.567Z,99175.02
2018-12-02T19:17:41.961Z,99174.03
2018-12-02T19:20:15.176Z,99168.95
2018-12-02T19:22:43.424Z,99179.11
2018-12-02T19:25:13.332Z,99187.16
2018-12-02T19:27:41.557Z,99184.44
2018-12-02T19:30:13.361Z,99181.94
2018-12-02T19:32:41.686Z,99172.89
2018-12-02T19:35:14.456Z,99177.73
2018-12-02T19:37:43.241Z,99165.95
2018-12-02T19:40:14.608Z,99167.69
2018-12-02T19:42:42.896Z,99156.17
2018-12-02T19:45:15.290Z,99158.89
2018-12-02T19:47:43.540Z,99157.91
2018-12-02T19:50:17.864Z,99153.44
2018-12-02T19:52:46.439Z,99143.02
2018-12-02T19:55:14.642Z,99150.71
2018-12-02T19:57:45.012Z,99147.61
2018-12-02T20:00:19.769Z,99139.43
2018-12-02T20:02:48.053Z,99150.22
2018-12-02T20:05:16.188Z,99146.01
2018-12-02T20:07:45.517Z,99146.72
2018-12-02T20:10:16.049Z,99152.55
2018-12-02T20:12:44.239Z,99145.12
2018-12-02T20:15:13.516Z,99150.58
2018-12-02T20:17:41.725Z,99143.14
2018-12-02T20:20:20.141Z,99147.08
2018-12-02T20:22:48.304Z,99153.55
2018-12-02T20:25:17.053Z,99153.78
2018-12-02T20:27:45.781Z,99154.64
2018-12-02T20:30:16.963Z,99155.77
2018-12-02T20:32:45.186Z,99153.91
2018-12-02T20:35:13.321Z,99148.45
2018-12-02T20:37:41.853Z,99156.02
2018-12-02T20:40:14.321Z,99160.95
2018-12-02T20:42:42.619Z,99161.10
2018-12-02T20:45:11.965Z,99154.28
2018-12-02T20:47:40.110Z,99166.28
2018-12-02T20:50:09.812Z,99160.45
2018-12-02T20:52:37.957Z,99166.16
2018-12-02T20:55:15.013Z,99163.44
2018-12-02T20:57:43.412Z,99167.91
2018-12-02T21:00:13.057Z,99157.24
2018-12-02T21:02:41.607Z,99163.08
2018-12-02T21:05:47.324Z,99167.66
2018-12-02T21:08:15.468Z,99158.75
2018-12-02T21:10:43.609Z,99155.75
2018-12-02T21:13:11.853Z,99152.28
2018-12-02T21:15:39.995Z,99153.37
2018-12-02T21:18:08.163Z,99157.34
2018-12-02T21:20:36.309Z,99158.21
2018-12-02T21:23:04.508Z,99150.89
2018-12-02T21:25:32.669Z,99147.79
2018-12-02T21:28:00.808Z,99144.19
2018-12-02T21:30:29.823Z,99153.01
2018-12-02T21:32:58.030Z,99144.56
2018-12-02T21:35:26.304Z,99142.34
2018-12-02T21:37:55.887Z,99146.05
2018-12-02T21:40:24.068Z,99146.80
2018-12-02T21:42:52.370Z,99139.86
2018-12-02T21:45:20.708Z,99131.92
2018-12-02T21:47:51.413Z,99128.82
2018-12-02T21:50:31.596Z,99123.98
2018-12-02T21:53:01.025Z,99126.58
2018-12-02T21:55:29.209Z,99124.72
2018-12-02T21:57:57.382Z,99118.77
2018-12-02T22:00:30.869Z,99110.86
2018-12-02T22:02:59.052Z,99112.22
2018-12-02T22:05:27.281Z,99101.47
2018-12-02T22:07:55.417Z,99107.27
2018-12-02T22:10:25.904Z,99099.73
2018-12-02T22:12:54.208Z,99099.59
2018-12-02T22:15:22.353Z,99094.42
2018-12-02T22:17:50.557Z,99103.22
2018-12-02T22:20:18.729Z,99097.77
2018-12-02T22:22:46.912Z,99102.72
2018-12-02T22:25:17.141Z,99099.50
2018-12-02T22:27:46.421Z,99109.27
2018-12-02T22:30:16.560Z,99102.58
2018-12-02T22:32:44.732Z,99103.81
2018-12-02T22:35:13.840Z,99109.00
2018-12-02T22:37:42.394Z,99106.02
2018-12-02T22:40:11.781Z,99102.80
2018-12-02T22:42:39.988Z,99115.33
2018-12-02T22:45:09.988Z,99122.15
2018-12-02T22:47:38.150Z,99114.30
2018-12-02T22:50:09.817Z,99115.42
2018-12-02T22:52:37.968Z,99116.05
2018-12-02T22:55:07.725Z,99120.85
2018-12-02T22:57:36.173Z,99122.22
2018-12-02T23:00:08.037Z,99123.34
2018-12-02T23:02:41.492Z,99127.68
2018-12-02T23:05:09.629Z,99124.08
2018-12-02T23:07:37.912Z,99124.67
2018-12-02T23:10:06.088Z,99115.86
2018-12-02T23:12:34.262Z,99119.09
2018-12-02T23:15:02.448Z,99107.55
2018-12-02T23:17:30.599Z,99107.67
2018-12-02T23:19:58.761Z,99100.86
2018-12-02T23:22:26.937Z,99112.77
2018-12-02T23:24:55.068Z,99102.22
2018-12-02T23:27:23.213Z,99099.73
2018-12-02T23:29:51.344Z,99101.60
2018-12-02T23:32:19.537Z,99100.23
2018-12-02T23:34:47.701Z,99097.50
2018-12-02T23:37:20.525Z,99101.60
2018-12-02T23:39:44.005Z,99101.60
2018-12-02T23:42:12.256Z,99100.23
2018-12-02T23:44:40.390Z,99095.14
2018-12-02T23:47:08.541Z,99086.46
2018-12-02T23:49:36.757Z,99090.19
2018-12-02T23:52:05.169Z,99077.28
2018-12-02T23:54:33.308Z,99083.73
2018-12-02T23:57:01.454Z,99081.01
2018-12-02T23:59:29.580Z,99078.28
